Time;durP1;ratioP1;P1;durP2;ratioP2;P2;SDS_P1;SDS_P2;PMS_P1;PMS_P2;Temp;Humidity;BMP_temperature;BMP_pressure;BME280_temperature;BME280_humidity;BME280_pressure;Samples;Min_cycle;Max_cycle;Signal;HPM_P1;HPM_P2
2021/01/27 00:00:09;;;;;;;24.98;14.15;;;;;;;0.78;94.46;100671.13;4932698;28;20151;-58
2021/01/27 00:02:36;;;;;;;22.45;13.55;;;;;;;0.94;95.20;100672.97;4931883;28;20043;-56
2021/01/27 00:05:05;;;;;;;27.67;13.93;;;;;;;0.82;95.38;100672.19;4932526;28;20055;-58
2021/01/27 00:07:32;;;;;;;22.08;11.93;;;;;;;1.07;94.16;100674.66;4931633;28;20078;-60
2021/01/27 00:09:58;;;;;;;29.98;14.20;;;;;;;0.89;94.60;100675.22;4934800;28;20496;-56
2021/01/27 00:12:25;;;;;;;24.75;13.88;;;;;;;1.05;94.61;100678.69;4931964;28;20116;-57
2021/01/27 00:14:52;;;;;;;31.90;15.05;;;;;;;0.81;95.52;100678.00;4933933;28;20129;-57
2021/01/27 00:17:18;;;;;;;27.35;15.40;;;;;;;1.21;94.86;100672.19;4936114;28;20405;-56
2021/01/27 00:19:45;;;;;;;25.98;14.93;;;;;;;1.17;94.41;100679.47;4932928;28;20040;-57
2021/01/27 00:22:12;;;;;;;26.30;14.40;;;;;;;1.21;93.56;100679.78;4932866;28;20061;-58
2021/01/27 00:24:38;;;;;;;27.70;14.93;;;;;;;1.36;93.44;100679.84;4931989;28;20048;-58
2021/01/27 00:27:05;;;;;;;29.10;14.25;;;;;;;1.30;93.52;100678.59;4933570;28;20047;-57
2021/01/27 00:29:32;;;;;;;27.92;15.15;;;;;;;1.35;93.52;100674.72;4931945;28;20086;-60
2021/01/27 00:31:58;;;;;;;31.13;15.57;;;;;;;1.23;93.93;100673.16;4934433;28;20095;-54
2021/01/27 00:34:25;;;;;;;27.98;15.63;;;;;;;1.24;94.40;100674.91;4931581;28;20078;-57
2021/01/27 00:36:52;;;;;;;27.45;14.98;;;;;;;1.11;94.63;100669.00;4933458;28;20512;-56
2021/01/27 00:39:18;;;;;;;29.48;15.55;;;;;;;1.13;95.14;100668.31;4932152;28;20412;-57
2021/01/27 00:41:45;;;;;;;28.48;15.07;;;;;;;1.24;94.46;100669.84;4932574;28;20052;-56
2021/01/27 00:44:12;;;;;;;26.55;13.85;;;;;;;1.44;93.53;100675.28;4935083;28;20373;-59
2021/01/27 00:46:39;;;;;;;29.48;15.35;;;;;;;1.26;93.46;100675.88;4934452;28;20127;-58
2021/01/27 00:49:05;;;;;;;29.65;15.32;;;;;;;1.12;94.47;100681.72;4933610;28;20575;-60
2021/01/27 00:51:32;;;;;;;27.98;15.80;;;;;;;0.95;95.21;100680.63;4932044;28;20048;-56
2021/01/27 00:54:00;;;;;;;26.38;15.45;;;;;;;1.42;94.47;100681.88;4933954;28;20058;-59
2021/01/27 00:56:27;;;;;;;25.73;15.38;;;;;;;1.07;93.97;100675.50;4931266;28;20056;-59
2021/01/27 00:58:53;;;;;;;30.30;15.23;;;;;;;1.22;94.92;100679.00;4938737;28;20725;-57
2021/01/27 01:01:20;;;;;;;32.30;15.23;;;;;;;1.42;93.61;100677.69;4936089;28;20051;-57
2021/01/27 01:03:46;;;;;;;29.27;15.65;;;;;;;1.26;93.82;100675.88;4932694;28;20059;-59
2021/01/27 01:06:13;;;;;;;33.72;16.80;;;;;;;1.36;93.19;100668.88;4932177;28;20062;-58
2021/01/27 01:08:39;;;;;;;28.45;15.23;;;;;;;1.24;93.21;100682.47;4931922;28;20514;-60
2021/01/27 01:11:06;;;;;;;27.20;14.40;;;;;;;1.32;93.25;100674.53;4933345;28;20047;-58
2021/01/27 01:13:33;;;;;;;29.52;16.15;;;;;;;1.21;94.26;100676.38;4931759;28;20053;-58
2021/01/27 01:15:59;;;;;;;27.90;15.20;;;;;;;1.60;92.62;100683.00;4933813;28;20055;-58
2021/01/27 01:18:26;;;;;;;29.30;14.35;;;;;;;1.33;92.82;100673.72;4931081;28;20047;-60
2021/01/27 01:20:53;;;;;;;25.35;13.80;;;;;;;1.50;92.52;100673.13;4935419;28;20056;-59
2021/01/27 01:23:21;;;;;;;27.60;14.90;;;;;;;1.18;93.50;100672.00;4942352;28;20047;-57
2021/01/27 01:25:49;;;;;;;26.17;13.68;;;;;;;1.31;93.84;100676.16;4937319;28;20115;-54
2021/01/27 01:28:17;;;;;;;27.08;14.13;;;;;;;1.39;93.75;100682.56;4935215;28;20043;-59
2021/01/27 01:30:46;;;;;;;31.60;15.07;;;;;;;1.23;93.82;100675.69;4940192;28;20047;-56
2021/01/27 01:33:16;;;;;;;27.52;15.77;;;;;;;1.41;92.95;100672.56;4935615;28;20051;-56
2021/01/27 01:35:44;;;;;;;28.38;14.70;;;;;;;1.48;92.93;100674.69;4935219;28;20110;-58
2021/01/27 01:38:11;;;;;;;28.42;14.82;;;;;;;1.37;93.32;100678.19;4935602;28;20107;-60
2021/01/27 01:40:41;;;;;;;27.00;14.50;;;;;;;1.30;93.79;100669.38;4934585;28;20074;-56
2021/01/27 01:43:28;;;;;;;29.08;15.82;;;;;;;1.08;94.04;100667.16;4936230;28;20459;-57
2021/01/27 01:46:16;;;;;;;30.50;14.98;;;;;;;1.09;94.25;100665.50;4936515;28;20051;-60
2021/01/27 01:48:52;;;;;;;28.95;14.80;;;;;;;0.95;94.72;100665.50;4934990;28;20051;-59
2021/01/27 01:51:27;;;;;;;29.70;14.27;;;;;;;0.93;95.30;100666.22;4934607;28;20103;-55
2021/01/27 01:54:01;;;;;;;28.83;14.98;;;;;;;0.88;95.43;100668.44;4936495;28;21161;-57
2021/01/27 01:56:34;;;;;;;32.03;15.25;;;;;;;0.91;95.55;100665.22;4933816;28;20119;-55
2021/01/27 01:59:03;;;;;;;27.90;14.90;;;;;;;1.11;94.52;100663.94;4936574;28;20070;-59
2021/01/27 02:01:31;;;;;;;26.25;14.07;;;;;;;1.37;93.60;100656.34;4933807;28;20146;-59
2021/01/27 02:03:58;;;;;;;28.85;14.60;;;;;;;1.25;93.05;100660.66;4936167;28;20065;-58
2021/01/27 02:06:25;;;;;;;29.33;15.55;;;;;;;1.13;93.64;100663.28;4933228;28;20052;-58
2021/01/27 02:08:57;;;;;;;26.13;14.25;;;;;;;1.35;93.22;100662.09;4935644;28;20550;-56
2021/01/27 02:11:53;;;;;;;28.20;15.25;;;;;;;1.13;93.30;100652.31;4933332;28;20111;-54
2021/01/27 02:14:25;;;;;;;29.30;15.20;;;;;;;0.97;93.62;100663.97;4937960;28;20059;-57
2021/01/27 02:17:03;;;;;;;29.33;14.95;;;;;;;1.12;94.17;100664.06;4935722;28;20048;-54
2021/01/27 02:19:48;;;;;;;28.98;14.23;;;;;;;0.98;94.11;100652.25;4938160;28;20110;-55
2021/01/27 02:22:26;;;;;;;25.20;14.18;;;;;;;0.89;94.92;100655.06;4933637;28;20169;-58
2021/01/27 02:25:23;;;;;;;26.20;13.77;;;;;;;0.91;95.31;100645.06;4935685;28;20075;-58
2021/01/27 02:27:53;;;;;;;28.08;13.25;;;;;;;0.92;94.31;100662.78;4934867;28;20052;-55
2021/01/27 02:31:01;;;;;;;27.55;14.27;;;;;;;0.63;95.32;100655.88;4937479;28;20051;-59
2021/01/27 02:33:38;;;;;;;27.98;14.57;;;;;;;0.70;95.04;100657.19;4933033;28;20361;-59
2021/01/27 02:36:16;;;;;;;30.08;14.85;;;;;;;0.39;95.88;100660.22;4933744;28;20039;-54
2021/01/27 02:38:53;;;;;;;32.53;16.13;;;;;;;0.43;96.78;100659.66;4934118;28;20052;-58
2021/01/27 02:41:40;;;;;;;31.27;15.10;;;;;;;0.68;96.05;100664.63;4937803;28;20126;-56
2021/01/27 02:44:12;;;;;;;28.48;15.32;;;;;;;0.47;96.77;100653.16;4933370;28;20047;-57
2021/01/27 02:46:48;;;;;;;30.92;16.17;;;;;;;0.52;96.61;100655.97;4933477;28;20119;-57
2021/01/27 02:49:32;;;;;;;33.40;15.05;;;;;;;0.41;97.32;100661.16;4934047;28;20522;-60
2021/01/27 02:52:06;;;;;;;31.35;14.60;;;;;;;0.42;96.38;100657.91;4940474;28;20158;-59
2021/01/27 02:54:42;;;;;;;29.30;14.70;;;;;;;0.71;95.28;100658.91;4937684;28;20047;-57
2021/01/27 02:57:16;;;;;;;31.63;14.65;;;;;;;0.46;96.20;100661.47;4932945;28;20043;-58
2021/01/27 03:00:20;;;;;;;31.42;15.10;;;;;;;0.41;96.85;100658.66;4933962;28;20508;-56
2021/01/27 03:03:01;;;;;;;30.25;14.73;;;;;;;0.33;97.49;100653.91;4934628;28;20039;-59
2021/01/27 03:05:33;;;;;;;30.55;14.25;;;;;;;0.49;96.50;100664.19;4932514;28;20075;-59
2021/01/27 03:08:03;;;;;;;29.20;14.82;;;;;;;0.23;97.46;100662.47;4936998;28;20106;-57
2021/01/27 03:10:36;;;;;;;34.95;16.20;;;;;;;0.32;96.90;100660.56;4924344;28;20043;-57
2021/01/27 03:13:03;;;;;;;30.05;14.88;;;;;;;0.14;97.80;100655.22;4935540;28;20710;-59
2021/01/27 03:15:29;;;;;;;33.40;16.85;;;;;;;0.14;97.59;100665.28;4932243;28;20072;-58
2021/01/27 03:18:00;;;;;;;27.80;14.38;;;;;;;-0.03;97.77;100663.28;4935047;28;20059;-55
2021/01/27 03:20:31;;;;;;;34.38;16.55;;;;;;;0.01;97.88;100661.84;4932648;28;20712;-58
2021/01/27 03:23:22;;;;;;;30.85;15.68;;;;;;;-0.15;97.67;100659.94;4935528;28;20804;-60
2021/01/27 03:25:55;;;;;;;32.33;15.63;;;;;;;0.03;97.06;100661.16;4933847;28;20051;-54
2021/01/27 03:28:26;;;;;;;35.60;17.02;;;;;;;-0.21;97.58;100665.41;4940159;28;20162;-59
2021/01/27 03:30:53;;;;;;;34.50;16.98;;;;;;;-0.41;98.62;100663.19;4934762;28;20473;-57
2021/01/27 03:33:40;;;;;;;36.08;16.42;;;;;;;-0.36;98.87;100661.88;4934315;28;20584;-58
2021/01/27 03:36:10;;;;;;;33.65;16.45;;;;;;;-0.50;99.51;100663.44;4932089;28;20043;-57
2021/01/27 03:38:58;;;;;;;37.95;18.13;;;;;;;-0.58;100.00;100667.06;4932508;28;20051;-56
2021/01/27 03:41:45;;;;;;;40.13;18.73;;;;;;;-0.45;100.00;100672.16;4931836;28;20114;-56
2021/01/27 03:44:22;;;;;;;39.20;17.55;;;;;;;-0.52;100.00;100668.34;4932728;28;20047;-59
2021/01/27 03:47:03;;;;;;;36.80;17.42;;;;;;;-0.40;99.96;100668.31;4933784;28;20051;-58
2021/01/27 03:49:32;;;;;;;37.15;17.60;;;;;;;-0.41;100.00;100675.78;4923418;28;20055;-56
2021/01/27 03:52:08;;;;;;;40.05;18.90;;;;;;;-0.34;99.43;100668.75;4935092;28;20054;-57
2021/01/27 03:54:47;;;;;;;40.65;19.15;;;;;;;-0.24;98.80;100667.72;4932212;28;20047;-59
2021/01/27 03:57:17;;;;;;;;;;;;;;;-0.47;99.38;100672.81;4933424;28;20055;-58
2021/01/27 03:59:46;;;;;;;33.95;16.45;;;;;;;-0.53;100.00;100665.72;4933128;28;19923;-56
2021/01/27 04:02:14;;;;;;;39.25;18.73;;;;;;;-0.38;99.49;100669.28;4932351;28;20101;-59
2021/01/27 04:04:41;;;;;;;34.25;17.25;;;;;;;-0.69;99.96;100666.31;4939092;28;20047;-59
2021/01/27 04:07:07;;;;;;;41.28;17.83;;;;;;;-0.89;100.00;100657.34;4933720;28;20051;-58
2021/01/27 04:09:34;;;;;;;37.95;18.65;;;;;;;-0.47;100.00;100667.78;4932293;28;20574;-56
2021/01/27 04:12:00;;;;;;;41.00;18.38;;;;;;;-0.40;98.66;100670.84;4935980;28;20504;-57
2021/01/27 04:14:26;;;;;;;37.55;18.58;;;;;;;-0.48;98.56;100661.00;4931241;28;20051;-60
2021/01/27 04:16:53;;;;;;;36.50;17.95;;;;;;;-0.56;97.99;100668.03;4938227;28;20055;-60
2021/01/27 04:19:20;;;;;;;42.25;18.05;;;;;;;-0.79;98.93;100661.38;4939340;28;20050;-59
2021/01/27 04:21:46;;;;;;;39.42;18.50;;;;;;;-0.61;98.37;100661.81;4943093;28;20059;-60
2021/01/27 04:24:13;;;;;;;44.20;18.75;;;;;;;-0.88;99.16;100649.06;4938432;28;20447;-58
2021/01/27 04:26:39;;;;;;;51.90;21.85;;;;;;;-1.33;100.00;100662.63;4932235;28;20508;-58
2021/01/27 04:29:06;;;;;;;43.88;19.75;;;;;;;-0.91;100.00;100663.06;4934080;28;20058;-57
2021/01/27 04:31:32;;;;;;;41.00;19.80;;;;;;;-0.62;99.16;100648.34;4932478;28;20091;-57
2021/01/27 04:33:59;;;;;;;45.90;20.92;;;;;;;-0.78;98.58;100656.50;4931195;28;20047;-55
2021/01/27 04:36:26;;;;;;;43.03;19.63;;;;;;;-0.98;99.26;100655.84;4938640;28;20062;-57
2021/01/27 04:38:52;;;;;;;46.88;20.05;;;;;;;-1.29;100.00;100661.19;4937738;28;20099;-54
2021/01/27 04:41:18;;;;;;;45.65;20.63;;;;;;;-0.95;100.00;100658.56;4935524;28;20043;-55
2021/01/27 04:43:48;;;;;;;43.40;20.17;;;;;;;-1.05;99.74;100677.16;4935517;28;20050;-57
2021/01/27 04:46:28;;;;;;;45.22;21.08;;;;;;;-0.86;98.89;100667.63;4935208;28;20132;-56
2021/01/27 04:49:00;;;;;;;53.10;22.27;;;;;;;-0.76;99.40;100664.13;4935124;28;20515;-58
2021/01/27 04:51:36;;;;;;;49.25;22.25;;;;;;;-0.77;99.98;100663.25;4936117;28;20055;-58
2021/01/27 04:54:20;;;;;;;52.53;22.80;;;;;;;-0.64;99.78;100662.47;4935870;28;20051;-59
2021/01/27 04:56:53;;;;;;;52.65;22.45;;;;;;;-0.58;99.91;100664.53;4937460;28;20047;-58
2021/01/27 04:59:28;;;;;;;49.80;24.52;;;;;;;-0.54;100.00;100657.31;4936202;28;20052;-55
2021/01/27 05:01:57;;;;;;;54.33;23.23;;;;;;;-0.52;100.00;100667.47;4939562;28;20965;-56
2021/01/27 05:04:33;;;;;;;55.60;22.77;;;;;;;-0.40;100.00;100664.94;4946269;28;20047;-57
2021/01/27 05:07:07;;;;;;;60.33;25.20;;;;;;;-0.57;100.00;100657.09;4946553;28;20065;-58
2021/01/27 05:09:45;;;;;;;58.10;24.88;;;;;;;-0.39;100.00;100654.97;4936394;28;20074;-59
2021/01/27 05:12:15;;;;;;;56.95;23.40;;;;;;;-0.30;100.00;100653.09;4938350;28;20054;-58
2021/01/27 05:14:46;;;;;;;55.55;24.15;;;;;;;-0.15;99.90;100653.25;4937720;28;20103;-57
2021/01/27 05:17:19;;;;;;;55.20;24.70;;;;;;;-0.30;99.67;100649.69;4951994;28;20047;-60
2021/01/27 05:19:49;;;;;;;57.53;26.70;;;;;;;-0.12;100.00;100645.03;4942459;28;20098;-53
2021/01/27 05:22:17;;;;;;;56.38;25.98;;;;;;;-0.21;99.96;100646.94;4937017;28;20047;-56
2021/01/27 05:24:45;;;;;;;54.70;26.38;;;;;;;-0.19;99.98;100640.34;4937451;28;20052;-54
2021/01/27 05:27:21;;;;;;;52.38;25.75;;;;;;;-0.02;99.64;100644.88;4937438;28;20151;-55
2021/01/27 05:30:09;;;;;;;58.00;26.25;;;;;;;-0.12;99.86;100637.50;4941227;28;20047;-56
2021/01/27 05:32:51;;;;;;;52.90;26.08;;;;;;;0.01;100.00;100636.69;4936086;28;20467;-59
2021/01/27 05:35:36;;;;;;;55.35;24.70;;;;;;;0.06;99.05;100636.22;4936658;28;20051;-55
2021/01/27 05:38:25;;;;;;;54.35;26.35;;;;;;;-0.09;100.00;100628.50;4936486;28;20044;-53
2021/01/27 05:41:10;;;;;;;58.28;27.08;;;;;;;0.06;99.24;100640.38;4943267;28;20047;-55
2021/01/27 05:43:37;;;;;;;61.47;27.35;;;;;;;0.22;99.08;100638.06;4936034;28;20819;-57
2021/01/27 05:46:15;;;;;;;56.85;26.95;;;;;;;0.16;98.74;100633.53;4942925;28;20094;-57
2021/01/27 05:48:50;;;;;;;57.97;26.48;;;;;;;0.08;99.65;100638.81;4936585;28;20048;-57
2021/01/27 05:51:38;;;;;;;53.30;26.35;;;;;;;0.13;99.05;100633.31;4936845;28;20047;-58
2021/01/27 05:54:27;;;;;;;57.13;27.80;;;;;;;0.04;99.02;100634.34;4940018;28;20632;-54
2021/01/27 05:56:54;;;;;;;54.78;24.70;;;;;;;0.28;99.15;100637.59;4936516;28;20046;-57
2021/01/27 05:59:27;;;;;;;55.78;25.77;;;;;;;0.42;97.69;100636.88;4942958;28;20051;-54
2021/01/27 06:02:01;;;;;;;55.72;27.30;;;;;;;0.26;97.75;100635.00;4942706;28;20051;-58
2021/01/27 06:04:32;;;;;;;52.33;25.35;;;;;;;0.44;97.59;100636.19;4949248;28;20088;-56
2021/01/27 06:07:23;;;;;;;53.55;26.98;;;;;;;0.16;98.24;100645.25;4936973;28;20051;-55
2021/01/27 06:09:53;;;;;;;51.72;25.63;;;;;;;0.46;97.63;100631.25;4935827;28;20115;-55
2021/01/27 06:12:19;;;;;;;51.70;26.23;;;;;;;0.21;98.24;100634.69;4939920;28;20047;-57
2021/01/27 06:15:03;;;;;;;53.45;25.77;;;;;;;0.41;97.16;100637.63;4936134;28;20105;-58
2021/01/27 06:17:40;;;;;;;49.13;26.08;;;;;;;0.05;98.20;100634.47;4933730;28;20048;-58
2021/01/27 06:20:15;;;;;;;53.13;25.45;;;;;;;0.22;99.46;100633.03;4936940;28;20468;-58
2021/01/27 06:23:03;;;;;;;57.60;25.75;;;;;;;0.54;97.57;100630.09;4935300;28;20055;-59
2021/01/27 06:25:44;;;;;;;49.97;24.73;;;;;;;0.61;97.02;100631.38;4934406;28;20051;-57
2021/01/27 06:28:29;;;;;;;54.40;25.00;;;;;;;0.58;96.45;100636.22;4935035;28;20047;-55
2021/01/27 06:31:21;;;;;;;36.08;18.80;;;;;;;0.44;96.65;100631.16;4937235;28;20062;-57
2021/01/27 06:34:25;;;;;;;52.10;24.58;;;;;;;0.40;96.79;100621.66;4936032;28;20047;-56
2021/01/27 06:37:07;;;;;;;51.78;24.15;;;;;;;0.48;97.25;100634.75;4936500;28;20048;-55
2021/01/27 06:39:57;;;;;;;52.17;24.63;;;;;;;0.44;96.98;100635.31;4934707;28;20122;-55
2021/01/27 06:42:43;;;;;;;47.83;23.55;;;;;;;0.47;96.85;100633.88;4934357;28;20110;-54
2021/01/27 06:45:12;;;;;;;;;;;;;;;0.46;96.96;100632.16;4935959;28;20183;-55
2021/01/27 06:48:04;;;;;;;48.92;23.92;;;;;;;0.35;96.60;100630.56;4934903;28;19923;-54
2021/01/27 06:50:48;;;;;;;47.40;23.58;;;;;;;0.38;97.44;100643.38;4933360;28;20054;-53
2021/01/27 06:53:33;;;;;;;51.78;24.48;;;;;;;0.04;98.73;100645.28;4934674;28;20491;-58
2021/01/27 06:56:37;;;;;;;48.58;24.55;;;;;;;0.50;96.86;100639.09;4937194;28;20118;-56
2021/01/27 06:59:25;;;;;;;48.90;23.52;;;;;;;0.32;97.22;100647.97;4934616;28;20055;-56
2021/01/27 07:02:08;;;;;;;48.08;24.70;;;;;;;0.44;96.39;100643.75;4936661;28;20040;-57
2021/01/27 07:04:41;;;;;;;53.42;26.08;;;;;;;0.36;96.94;100641.50;4934575;28;20046;-56
2021/01/27 07:07:39;;;;;;;49.22;24.65;;;;;;;0.59;96.82;100645.50;4934363;28;20047;-54
2021/01/27 07:10:24;;;;;;;45.50;23.23;;;;;;;0.51;97.26;100640.00;4934869;28;20090;-56
2021/01/27 07:13:01;;;;;;;50.42;24.40;;;;;;;0.55;97.30;100636.88;4935875;28;20047;-57
2021/01/27 07:15:46;;;;;;;49.13;24.58;;;;;;;0.64;95.88;100634.94;4933774;28;20055;-56
2021/01/27 07:18:16;;;;;;;42.80;23.20;;;;;;;0.75;95.37;100631.50;4933906;28;20047;-56
2021/01/27 07:21:01;;;;;;;48.22;24.10;;;;;;;0.43;96.62;100639.50;4935214;28;20078;-55
2021/01/27 07:24:02;;;;;;;46.60;22.83;;;;;;;0.66;96.15;100646.03;4933949;28;20063;-56
2021/01/27 07:26:54;;;;;;;45.38;24.00;;;;;;;0.56;97.36;100632.75;4933288;28;20048;-53
2021/01/27 07:29:26;;;;;;;44.10;23.35;;;;;;;0.15;97.88;100638.47;4938180;28;20571;-54
2021/01/27 07:32:05;;;;;;;47.67;24.55;;;;;;;0.74;96.56;100641.47;4936349;28;20159;-55
2021/01/27 07:34:47;;;;;;;45.83;23.10;;;;;;;0.58;95.70;100632.03;4933605;28;20050;-54
2021/01/27 07:37:17;;;;;;;46.15;24.58;;;;;;;0.70;95.21;100634.50;4934157;28;20929;-57
2021/01/27 07:40:15;;;;;;;42.45;22.80;;;;;;;0.86;94.73;100631.28;4934358;28;20137;-57
2021/01/27 07:43:16;;;;;;;40.63;21.52;;;;;;;0.95;94.13;100625.16;4933716;28;20059;-59
2021/01/27 07:45:48;;;;;;;44.17;22.60;;;;;;;0.94;94.55;100628.47;4933964;28;20044;-59
2021/01/27 07:48:45;;;;;;;41.40;22.40;;;;;;;0.88;93.81;100628.09;4934466;28;20055;-59
2021/01/27 07:51:16;;;;;;;42.33;22.60;;;;;;;0.80;95.38;100633.44;4933407;28;20906;-58
2021/01/27 07:54:01;;;;;;;38.42;21.58;;;;;;;0.99;94.28;100631.28;4934064;28;20571;-59
2021/01/27 07:56:42;;;;;;;41.65;21.90;;;;;;;0.43;95.31;100639.50;4932634;28;20051;-59
2021/01/27 07:59:15;;;;;;;43.17;21.88;;;;;;;0.76;95.82;100642.44;4933355;28;20447;-57
2021/01/27 08:01:47;;;;;;;41.30;20.85;;;;;;;0.97;94.13;100636.25;4933837;28;20052;-57
2021/01/27 08:04:38;;;;;;;40.03;21.33;;;;;;;1.05;93.88;100633.31;4934130;28;20047;-58
2021/01/27 08:07:06;;;;;;;41.90;22.08;;;;;;;1.01;93.70;100629.72;4935308;28;20121;-60
2021/01/27 08:09:36;;;;;;;41.75;21.38;;;;;;;1.18;93.38;100633.31;4932964;28;20071;-56
2021/01/27 08:12:30;;;;;;;42.03;22.42;;;;;;;1.16;92.86;100627.31;4935704;28;20047;-54
2021/01/27 08:15:33;;;;;;;40.75;22.27;;;;;;;1.15;93.00;100636.50;4935394;28;20518;-59
2021/01/27 08:18:15;;;;;;;36.72;20.33;;;;;;;1.18;94.72;100631.66;4935162;28;20484;-59
2021/01/27 08:20:46;;;;;;;35.15;19.25;;;;;;;1.28;92.38;100633.97;4933551;28;20474;-57
2021/01/27 08:23:21;;;;;;;39.78;20.65;;;;;;;1.21;92.52;100634.38;4934188;28;20051;-59
2021/01/27 08:25:56;;;;;;;32.55;18.15;;;;;;;1.31;92.08;100637.47;4934395;28;20059;-54
2021/01/27 08:28:43;;;;;;;37.80;21.50;;;;;;;1.22;92.19;100628.53;4937108;28;20467;-59
2021/01/27 08:31:10;;;;;;;36.72;19.95;;;;;;;1.41;91.94;100624.63;4934007;28;20043;-58
2021/01/27 08:33:44;;;;;;;40.63;21.25;;;;;;;1.50;91.50;100625.19;4932598;28;20051;-58
2021/01/27 08:36:22;;;;;;;38.30;20.42;;;;;;;1.31;92.43;100632.41;4933924;28;20050;-55
2021/01/27 08:38:58;;;;;;;38.92;20.45;;;;;;;0.94;93.95;100627.63;4934375;28;20098;-59
2021/01/27 08:42:19;;;;;;;34.97;20.73;;;;;;;1.01;93.39;100629.72;4932494;28;20069;-58
2021/01/27 08:44:46;;;;;;;34.28;18.50;;;;;;;1.49;91.09;100629.38;4933678;28;20127;-59
2021/01/27 08:47:38;;;;;;;36.25;20.02;;;;;;;1.46;91.26;100629.16;4933466;28;20467;-57
2021/01/27 08:50:11;;;;;;;38.45;20.55;;;;;;;1.20;92.19;100629.22;4933208;28;20159;-58
2021/01/27 08:52:42;;;;;;;34.83;19.48;;;;;;;1.61;90.13;100618.25;4932717;28;20055;-59
2021/01/27 08:55:43;;;;;;;32.47;18.45;;;;;;;1.51;90.63;100624.41;4934532;28;20055;-60
2021/01/27 08:58:16;;;;;;;35.47;19.05;;;;;;;1.82;89.57;100622.06;4931266;28;20039;-58
2021/01/27 09:00:44;;;;;;;33.33;18.55;;;;;;;1.65;89.00;100626.09;4933804;28;20224;-58
2021/01/27 09:03:37;;;;;;;35.03;18.98;;;;;;;1.63;90.54;100625.16;4933842;28;20098;-56
2021/01/27 09:06:37;;;;;;;35.05;19.85;;;;;;;1.63;89.45;100622.63;4930127;28;20821;-56
2021/01/27 09:09:19;;;;;;;32.67;17.88;;;;;;;1.92;89.25;100624.34;4933261;28;20097;-58
2021/01/27 09:11:45;;;;;;;35.58;19.02;;;;;;;1.86;89.52;100628.19;4933619;28;20047;-57
2021/01/27 09:14:16;;;;;;;30.83;18.27;;;;;;;1.89;88.59;100623.28;4933736;28;20043;-59
2021/01/27 09:16:43;;;;;;;31.73;19.02;;;;;;;1.70;88.78;100622.19;4933163;28;20051;-58
2021/01/27 09:19:18;;;;;;;33.45;18.05;;;;;;;1.71;89.40;100620.53;4933934;28;20642;-59
2021/01/27 09:22:00;;;;;;;38.30;18.52;;;;;;;1.72;88.00;100617.28;4933229;28;20044;-59
2021/01/27 09:24:45;;;;;;;31.65;18.23;;;;;;;1.89;88.25;100613.19;4932468;28;20510;-59
2021/01/27 09:27:14;;;;;;;36.05;19.15;;;;;;;2.01;87.88;100611.41;4932693;28;20127;-59
2021/01/27 09:29:41;;;;;;;33.22;18.35;;;;;;;2.00;88.29;100608.00;4933272;28;20048;-59
2021/01/27 09:32:28;;;;;;;34.95;19.58;;;;;;;1.84;87.63;100605.34;4934147;28;20047;-60
2021/01/27 09:34:55;;;;;;;33.03;19.67;;;;;;;1.88;88.25;100607.28;4934514;28;20051;-58
2021/01/27 09:37:47;;;;;;;32.13;17.42;;;;;;;1.71;88.97;100598.72;4932059;28;20416;-58
2021/01/27 09:40:25;;;;;;;33.85;18.73;;;;;;;1.74;89.30;100598.88;4933697;28;20047;-57
2021/01/27 09:42:59;;;;;;;32.80;18.30;;;;;;;1.85;89.46;100601.16;4937580;28;20822;-59
2021/01/27 09:45:29;;;;;;;37.75;19.38;;;;;;;2.05;88.84;100598.19;4935494;28;20102;-59
2021/01/27 09:47:57;;;;;;;32.40;17.67;;;;;;;2.37;86.17;100605.06;4937876;28;20048;-60
2021/01/27 09:50:26;;;;;;;32.75;18.35;;;;;;;2.25;86.84;100596.78;4935032;28;20047;-59
2021/01/27 09:52:56;;;;;;;35.58;18.42;;;;;;;2.18;87.50;100599.75;4937413;28;20059;-59
2021/01/27 09:55:26;;;;;;;32.13;17.40;;;;;;;2.36;86.17;100597.38;4939426;28;20047;-59
2021/01/27 09:57:52;;;;;;;30.52;17.02;;;;;;;2.32;86.10;100603.09;4937365;28;20052;-57
2021/01/27 10:00:37;;;;;;;32.03;18.45;;;;;;;2.43;86.45;100602.03;4939564;28;20567;-57
2021/01/27 10:03:31;;;;;;;33.83;18.75;;;;;;;2.61;85.14;100594.59;4935992;28;20176;-59
2021/01/27 10:06:00;;;;;;;32.55;18.92;;;;;;;2.51;85.93;100599.13;4937288;28;20074;-59
2021/01/27 10:08:34;;;;;;;30.52;18.55;;;;;;;2.50;86.38;100594.00;4934593;28;20051;-59
2021/01/27 10:11:28;;;;;;;31.80;18.85;;;;;;;2.53;85.31;100592.50;4934777;28;20039;-59
2021/01/27 10:14:06;;;;;;;33.83;19.30;;;;;;;2.63;85.06;100593.88;4937475;28;20131;-60
2021/01/27 10:16:34;;;;;;;35.47;20.02;;;;;;;2.98;83.92;100594.97;4934525;28;20056;-57
2021/01/27 10:19:05;;;;;;;32.90;17.92;;;;;;;2.87;83.30;100589.34;4937785;28;20043;-59
2021/01/27 10:21:43;;;;;;;35.35;18.25;;;;;;;3.01;83.50;100587.56;4934921;28;20059;-59
2021/01/27 10:24:09;;;;;;;32.80;18.88;;;;;;;3.48;81.81;100585.00;4935062;28;20054;-59
2021/01/27 10:26:41;;;;;;;31.83;19.48;;;;;;;3.26;83.07;100575.41;4934416;28;20075;-60
2021/01/27 10:29:31;;;;;;;29.13;18.23;;;;;;;3.68;80.48;100587.69;4934863;28;20075;-60
2021/01/27 10:32:17;;;;;;;31.85;17.88;;;;;;;3.51;81.29;100582.66;4937024;28;20058;-59
2021/01/27 10:34:46;;;;;;;32.90;18.00;;;;;;;4.18;77.72;100576.72;4935933;28;20122;-59
2021/01/27 10:37:30;;;;;;;31.25;19.20;;;;;;;4.41;77.69;100570.25;4936375;28;20110;-60
2021/01/27 10:40:14;;;;;;;29.52;17.80;;;;;;;4.44;75.45;100567.84;4936887;28;20534;-57
2021/01/27 10:42:46;;;;;;;29.33;18.08;;;;;;;3.82;77.59;100567.34;4935196;28;20047;-59
2021/01/27 10:45:36;;;;;;;29.95;17.58;;;;;;;4.16;77.31;100563.97;4936075;28;20059;-60
2021/01/27 10:48:11;;;;;;;32.47;17.58;;;;;;;4.17;77.12;100568.25;4933864;28;20533;-58
2021/01/27 10:50:44;;;;;;;32.33;19.05;;;;;;;3.94;78.54;100561.19;4934906;28;20079;-53
2021/01/27 10:53:28;;;;;;;31.73;18.88;;;;;;;4.30;76.44;100557.91;4933566;28;20043;-59
2021/01/27 10:55:56;;;;;;;33.88;17.20;;;;;;;3.94;77.57;100566.25;4937739;28;20047;-59
2021/01/27 10:58:23;;;;;;;31.10;18.80;;;;;;;3.90;77.15;100555.06;4934643;28;20047;-56
2021/01/27 11:00:50;;;;;;;32.22;18.55;;;;;;;3.74;78.23;100550.88;4936513;28;20052;-58
2021/01/27 11:03:18;;;;;;;30.67;18.80;;;;;;;3.93;77.53;100552.72;4935378;28;20059;-60
2021/01/27 11:05:45;;;;;;;32.30;17.77;;;;;;;3.65;77.30;100554.63;4935674;28;20052;-58
2021/01/27 11:08:26;;;;;;;31.77;18.05;;;;;;;3.49;78.27;100548.78;4936048;28;20109;-58
2021/01/27 11:10:54;;;;;;;29.67;17.77;;;;;;;3.34;78.94;100545.47;4936206;28;20091;-57
2021/01/27 11:13:21;;;;;;;39.40;20.25;;;;;;;3.68;78.10;100542.13;4938458;28;20059;-57
2021/01/27 11:15:48;;;;;;;32.72;18.70;;;;;;;3.70;78.75;100540.56;4935592;28;20052;-59
2021/01/27 11:18:15;;;;;;;34.45;19.05;;;;;;;3.71;78.87;100549.88;4935188;28;20109;-57
2021/01/27 11:20:42;;;;;;;33.72;19.58;;;;;;;3.48;79.30;100543.66;4934890;28;20048;-59
2021/01/27 11:23:09;;;;;;;32.90;17.52;;;;;;;4.09;76.70;100536.59;4935660;28;20050;-59
2021/01/27 11:25:35;;;;;;;27.35;17.67;;;;;;;4.17;77.60;100531.91;4934069;28;20099;-57
2021/01/27 11:28:02;;;;;;;31.35;17.65;;;;;;;4.98;73.61;100539.09;4936609;28;20495;-59
2021/01/27 11:30:30;;;;;;;24.88;16.17;;;;;;;6.73;66.99;100539.72;4933713;28;20115;-60
2021/01/27 11:32:58;;;;;;;25.65;17.38;;;;;;;6.70;65.50;100538.75;4936651;28;20059;-59
2021/01/27 11:35:25;;;;;;;24.48;16.60;;;;;;;8.23;61.11;100536.56;4938056;28;20562;-58
2021/01/27 11:37:52;;;;;;;22.80;16.02;;;;;;;10.11;55.73;100542.03;4935887;28;20063;-60
2021/01/27 11:40:24;;;;;;;21.67;15.82;;;;;;;12.62;46.83;100542.88;4934265;28;20502;-59
2021/01/27 11:42:51;;;;;;;21.15;16.02;;;;;;;13.09;45.50;100534.09;4935668;28;20122;-55
2021/01/27 11:45:19;;;;;;;23.27;16.95;;;;;;;13.37;43.71;100531.03;4934195;28;20047;-58
2021/01/27 11:47:47;;;;;;;24.15;17.13;;;;;;;13.59;44.64;100526.13;4934714;28;20062;-57
2021/01/27 11:50:15;;;;;;;20.95;16.10;;;;;;;14.43;42.42;100526.91;4934956;28;20051;-56